sensor_id;sensor_type;location;lat;lon;timestamp;pressure;altitude;pressure_sealevel;temperature;humidity
5298;BME280;14738;42.668;23.250;2023-02-21T00:01:02;48370.44;;;-141.90;38.00
5298;BME280;14738;42.668;23.250;2023-02-21T00:03:46;48376.41;;;-141.90;37.63
5298;BME280;14738;42.668;23.250;2023-02-21T00:06:30;48402.22;;;-141.90;37.59
5298;BME280;14738;42.668;23.250;2023-02-21T00:09:14;48426.03;;;-141.90;37.77
5298;BME280;14738;42.668;23.250;2023-02-21T00:11:58;48378.38;;;-141.90;37.45
5298;BME280;14738;42.668;23.250;2023-02-21T00:14:42;48378.38;;;-141.90;37.33
5298;BME280;14738;42.668;23.250;2023-02-21T00:17:26;48386.34;;;-141.90;37.38
5298;BME280;14738;42.668;23.250;2023-02-21T00:20:10;48338.69;;;-141.90;37.19
5298;BME280;14738;42.668;23.250;2023-02-21T00:22:54;48402.22;;;-141.90;37.23
5298;BME280;14738;42.668;23.250;2023-02-21T00:25:38;48406.19;;;-141.90;37.18
5298;BME280;14738;42.668;23.250;2023-02-21T00:28:22;48390.31;;;-141.90;36.99
5298;BME280;14738;42.668;23.250;2023-02-21T00:31:06;48384.34;;;-141.90;36.78
5298;BME280;14738;42.668;23.250;2023-02-21T00:33:50;48422.06;;;-141.90;37.04
5298;BME280;14738;42.668;23.250;2023-02-21T00:36:34;48386.34;;;-141.90;37.03
5298;BME280;14738;42.668;23.250;2023-02-21T00:39:18;48394.28;;;-141.90;37.11
5298;BME280;14738;42.668;23.250;2023-02-21T00:42:02;48386.34;;;-141.90;37.16
5298;BME280;14738;42.668;23.250;2023-02-21T00:44:46;48388.31;;;-141.90;37.04
5298;BME280;14738;42.668;23.250;2023-02-21T00:47:30;48348.63;;;-141.90;36.67
5298;BME280;14738;42.668;23.250;2023-02-21T00:50:14;48378.38;;;-141.90;36.82
5298;BME280;14738;42.668;23.250;2023-02-21T00:52:58;48394.28;;;-141.90;36.91
5298;BME280;14738;42.668;23.250;2023-02-21T00:55:46;48402.22;;;-141.90;36.68
5298;BME280;14738;42.668;23.250;2023-02-21T00:58:30;48372.44;;;-141.90;36.92
5298;BME280;14738;42.668;23.250;2023-02-21T01:01:13;48420.09;;;-141.90;36.16
5298;BME280;14738;42.668;23.250;2023-02-21T01:03:58;48388.31;;;-141.90;36.70
5298;BME280;14738;42.668;23.250;2023-02-21T01:06:41;48348.63;;;-141.90;36.48
5298;BME280;14738;42.668;23.250;2023-02-21T01:09:26;48370.44;;;-141.90;36.44
5298;BME280;14738;42.668;23.250;2023-02-21T01:12:10;48390.31;;;-141.90;36.50
5298;BME280;14738;42.668;23.250;2023-02-21T01:14:54;48374.41;;;-141.90;36.49
5298;BME280;14738;42.668;23.250;2023-02-21T01:17:38;48388.31;;;-141.90;36.68
5298;BME280;14738;42.668;23.250;2023-02-21T01:20:22;48374.41;;;-141.90;36.43
5298;BME280;14738;42.668;23.250;2023-02-21T01:23:06;48366.47;;;-141.90;36.57
5298;BME280;14738;42.668;23.250;2023-02-21T01:25:50;48402.22;;;-141.90;36.84
5298;BME280;14738;42.668;23.250;2023-02-21T01:28:34;48404.19;;;-141.90;36.43
5298;BME280;14738;42.668;23.250;2023-02-21T01:31:19;48388.31;;;-141.90;36.35
5298;BME280;14738;42.668;23.250;2023-02-21T01:34:03;48398.25;;;-141.90;36.22
5298;BME280;14738;42.668;23.250;2023-02-21T01:36:47;48370.44;;;-141.90;36.64
5298;BME280;14738;42.668;23.250;2023-02-21T01:39:32;48386.34;;;-141.90;36.93
5298;BME280;14738;42.668;23.250;2023-02-21T01:42:16;48366.47;;;-141.90;36.41
5298;BME280;14738;42.668;23.250;2023-02-21T01:48:08;48394.28;;;-141.90;36.51
5298;BME280;14738;42.668;23.250;2023-02-21T01:50:55;48380.38;;;-141.90;36.29
5298;BME280;14738;42.668;23.250;2023-02-21T01:53:41;48378.38;;;-141.90;36.82
5298;BME280;14738;42.668;23.250;2023-02-21T01:56:26;48386.34;;;-141.90;36.96
5298;BME280;14738;42.668;23.250;2023-02-21T01:59:10;48414.13;;;-141.90;37.20
5298;BME280;14738;42.668;23.250;2023-02-21T02:02:07;48374.41;;;-141.90;36.63
5298;BME280;14738;42.668;23.250;2023-02-21T02:04:54;48424.06;;;-141.90;36.25
5298;BME280;14738;42.668;23.250;2023-02-21T02:07:38;48384.34;;;-141.90;36.00
5298;BME280;14738;42.668;23.250;2023-02-21T02:10:23;48390.31;;;-141.90;36.26
5298;BME280;14738;42.668;23.250;2023-02-21T02:13:14;48386.34;;;-141.90;36.02
5298;BME280;14738;42.668;23.250;2023-02-21T02:16:31;48366.47;;;-141.90;35.83
5298;BME280;14738;42.668;23.250;2023-02-21T02:19:13;48398.25;;;-141.90;35.88
5298;BME280;14738;42.668;23.250;2023-02-21T02:22:05;48370.44;;;-141.90;35.69
5298;BME280;14738;42.668;23.250;2023-02-21T02:35:38;48406.19;;;-141.90;36.25
5298;BME280;14738;42.668;23.250;2023-02-21T02:38:14;48380.38;;;-141.90;36.13
5298;BME280;14738;42.668;23.250;2023-02-21T02:43:19;48374.41;;;-141.90;39.72
5298;BME280;14738;42.668;23.250;2023-02-21T02:50:57;48410.16;;;-141.90;43.39
5298;BME280;14738;42.668;23.250;2023-02-21T02:53:26;48418.09;;;-141.90;44.21
5298;BME280;14738;42.668;23.250;2023-02-21T02:58:33;48412.13;;;-141.90;44.57
5298;BME280;14738;42.668;23.250;2023-02-21T03:03:54;48426.03;;;-141.90;45.31
5298;BME280;14738;42.668;23.250;2023-02-21T03:12:04;48402.22;;;-141.90;46.45
5298;BME280;14738;42.668;23.250;2023-02-21T03:17:36;48390.31;;;-141.90;46.06
5298;BME280;14738;42.668;23.250;2023-02-21T03:20:06;48410.16;;;-141.90;46.52
5298;BME280;14738;42.668;23.250;2023-02-21T03:22:32;48418.09;;;-141.90;46.10
5298;BME280;14738;42.668;23.250;2023-02-21T03:25:01;48426.03;;;-141.90;44.94
5298;BME280;14738;42.668;23.250;2023-02-21T03:27:28;48386.34;;;-141.90;43.98
5298;BME280;14738;42.668;23.250;2023-02-21T03:29:57;48400.22;;;-141.90;42.27
5298;BME280;14738;42.668;23.250;2023-02-21T03:32:27;48402.22;;;-141.90;41.83
5298;BME280;14738;42.668;23.250;2023-02-21T03:34:54;48418.09;;;-141.90;41.15
5298;BME280;14738;42.668;23.250;2023-02-21T03:39:59;48398.25;;;-141.90;40.63
5298;BME280;14738;42.668;23.250;2023-02-21T03:42:25;48406.19;;;-141.90;39.72
5298;BME280;14738;42.668;23.250;2023-02-21T03:44:50;48386.34;;;-141.90;39.41
5298;BME280;14738;42.668;23.250;2023-02-21T03:47:16;48388.31;;;-141.90;38.53
5298;BME280;14738;42.668;23.250;2023-02-21T03:49:41;48390.31;;;-141.90;37.84
5298;BME280;14738;42.668;23.250;2023-02-21T03:52:10;48378.38;;;-141.90;37.65
5298;BME280;14738;42.668;23.250;2023-02-21T03:54:38;48394.28;;;-141.90;37.00
5298;BME280;14738;42.668;23.250;2023-02-21T03:57:04;48390.31;;;-141.90;37.38
5298;BME280;14738;42.668;23.250;2023-02-21T03:59:30;48378.38;;;-141.90;37.23
5298;BME280;14738;42.668;23.250;2023-02-21T04:01:55;48392.28;;;-141.90;37.41
5298;BME280;14738;42.668;23.250;2023-02-21T04:04:21;48398.25;;;-141.90;37.73
5298;BME280;14738;42.668;23.250;2023-02-21T04:06:46;48433.97;;;-141.90;37.68
5298;BME280;14738;42.668;23.250;2023-02-21T04:09:12;48410.16;;;-141.90;38.15
5298;BME280;14738;42.668;23.250;2023-02-21T04:11:37;48388.31;;;-141.90;38.26
5298;BME280;14738;42.668;23.250;2023-02-21T04:14:02;48360.53;;;-141.90;38.83
5298;BME280;14738;42.668;23.250;2023-02-21T04:16:29;48418.09;;;-141.90;38.74
5298;BME280;14738;42.668;23.250;2023-02-21T04:18:55;48394.28;;;-141.90;38.30
5298;BME280;14738;42.668;23.250;2023-02-21T04:21:21;48414.13;;;-141.90;37.78
5298;BME280;14738;42.668;23.250;2023-02-21T04:23:46;48386.34;;;-141.90;37.86
5298;BME280;14738;42.668;23.250;2023-02-21T04:26:13;48388.31;;;-141.90;37.61
5298;BME280;14738;42.668;23.250;2023-02-21T04:28:38;48388.31;;;-141.90;37.75
5298;BME280;14738;42.668;23.250;2023-02-21T04:31:04;48410.16;;;-141.90;38.34
5298;BME280;14738;42.668;23.250;2023-02-21T04:33:29;48388.31;;;-141.90;37.83
5298;BME280;14738;42.668;23.250;2023-02-21T04:35:54;48386.34;;;-141.90;38.15
5298;BME280;14738;42.668;23.250;2023-02-21T04:38:20;48418.09;;;-141.90;37.97
5298;BME280;14738;42.668;23.250;2023-02-21T04:40:45;48398.25;;;-141.90;38.49
5298;BME280;14738;42.668;23.250;2023-02-21T04:43:11;48398.25;;;-141.90;38.10
5298;BME280;14738;42.668;23.250;2023-02-21T04:45:36;48396.25;;;-141.90;38.13
5298;BME280;14738;42.668;23.250;2023-02-21T04:48:02;48416.09;;;-141.90;38.35
5298;BME280;14738;42.668;23.250;2023-02-21T04:50:27;48414.13;;;-141.90;38.87
5298;BME280;14738;42.668;23.250;2023-02-21T04:52:53;48396.25;;;-141.90;40.82
5298;BME280;14738;42.668;23.250;2023-02-21T04:55:18;48422.06;;;-141.90;42.01
5298;BME280;14738;42.668;23.250;2023-02-21T04:57:43;48398.25;;;-141.90;42.43
5298;BME280;14738;42.668;23.250;2023-02-21T05:00:10;48420.09;;;-141.90;43.02
5298;BME280;14738;42.668;23.250;2023-02-21T05:02:35;48398.25;;;-141.90;42.26
5298;BME280;14738;42.668;23.250;2023-02-21T05:05:01;48406.19;;;-141.90;41.36
5298;BME280;14738;42.668;23.250;2023-02-21T05:07:27;48406.19;;;-141.90;40.35
5298;BME280;14738;42.668;23.250;2023-02-21T05:09:52;48414.13;;;-141.90;40.11
5298;BME280;14738;42.668;23.250;2023-02-21T05:12:18;48426.03;;;-141.90;39.59
5298;BME280;14738;42.668;23.250;2023-02-21T05:14:43;48394.28;;;-141.90;39.46
5298;BME280;14738;42.668;23.250;2023-02-21T05:17:09;48388.31;;;-141.90;39.18
5298;BME280;14738;42.668;23.250;2023-02-21T05:19:34;48416.09;;;-141.90;38.55
5298;BME280;14738;42.668;23.250;2023-02-21T05:22:01;48410.16;;;-141.90;38.33
5298;BME280;14738;42.668;23.250;2023-02-21T05:24:28;48398.25;;;-141.90;38.12
5298;BME280;14738;42.668;23.250;2023-02-21T05:26:55;48398.25;;;-141.90;37.61
5298;BME280;14738;42.668;23.250;2023-02-21T05:29:21;48390.31;;;-141.90;37.95
5298;BME280;14738;42.668;23.250;2023-02-21T05:31:46;48396.25;;;-141.90;36.80
5298;BME280;14738;42.668;23.250;2023-02-21T05:34:12;48390.31;;;-141.90;37.32
5298;BME280;14738;42.668;23.250;2023-02-21T05:36:38;48374.41;;;-141.90;37.08
5298;BME280;14738;42.668;23.250;2023-02-21T05:39:04;48374.41;;;-141.90;37.15
5298;BME280;14738;42.668;23.250;2023-02-21T05:41:30;48408.16;;;-141.90;37.07
5298;BME280;14738;42.668;23.250;2023-02-21T05:43:55;48376.41;;;-141.90;37.02
5298;BME280;14738;42.668;23.250;2023-02-21T05:48:46;48364.50;;;-141.90;35.09
5298;BME280;14738;42.668;23.250;2023-02-21T05:51:12;48390.31;;;-141.90;33.48
5298;BME280;14738;42.668;23.250;2023-02-21T05:53:38;48354.56;;;-141.90;32.68
5298;BME280;14738;42.668;23.250;2023-02-21T05:56:03;48370.44;;;-141.90;31.46
5298;BME280;14738;42.668;23.250;2023-02-21T05:58:29;48386.34;;;-141.90;30.11
5298;BME280;14738;42.668;23.250;2023-02-21T06:00:54;48392.28;;;-141.90;29.16
5298;BME280;14738;42.668;23.250;2023-02-21T06:03:19;48368.47;;;-141.90;28.13
5298;BME280;14738;42.668;23.250;2023-02-21T06:05:45;48368.47;;;-141.90;28.33
5298;BME280;14738;42.668;23.250;2023-02-21T06:08:10;48364.50;;;-141.90;27.92
5298;BME280;14738;42.668;23.250;2023-02-21T06:10:36;48386.34;;;-141.90;27.51
5298;BME280;14738;42.668;23.250;2023-02-21T06:13:01;48358.53;;;-141.90;27.02
5298;BME280;14738;42.668;23.250;2023-02-21T06:15:27;48410.16;;;-141.90;26.84
5298;BME280;14738;42.668;23.250;2023-02-21T06:17:52;48374.41;;;-141.90;26.23
5298;BME280;14738;42.668;23.250;2023-02-21T06:20:18;48406.19;;;-141.90;26.94
5298;BME280;14738;42.668;23.250;2023-02-21T06:22:44;48358.53;;;-141.90;27.60
5298;BME280;14738;42.668;23.250;2023-02-21T06:25:09;48370.44;;;-141.90;28.99
5298;BME280;14738;42.668;23.250;2023-02-21T06:27:35;48378.38;;;-141.90;28.87
5298;BME280;14738;42.668;23.250;2023-02-21T06:30:02;48370.44;;;-141.90;28.89
5298;BME280;14738;42.668;23.250;2023-02-21T06:32:27;48390.31;;;-141.90;29.45
5298;BME280;14738;42.668;23.250;2023-02-21T06:34:53;48390.31;;;-141.90;29.30
5298;BME280;14738;42.668;23.250;2023-02-21T06:37:18;48366.47;;;-141.90;28.41
5298;BME280;14738;42.668;23.250;2023-02-21T06:39:44;48374.41;;;-141.90;28.82
5298;BME280;14738;42.668;23.250;2023-02-21T06:42:16;48374.41;;;-141.90;30.12
5298;BME280;14738;42.668;23.250;2023-02-21T06:44:47;48366.47;;;-141.90;30.21
5298;BME280;14738;42.668;23.250;2023-02-21T06:47:13;48376.41;;;-141.90;29.84
5298;BME280;14738;42.668;23.250;2023-02-21T06:49:39;48374.41;;;-141.90;29.66
5298;BME280;14738;42.668;23.250;2023-02-21T06:52:05;48374.41;;;-141.90;29.57
5298;BME280;14738;42.668;23.250;2023-02-21T06:54:31;48374.41;;;-141.90;29.18
5298;BME280;14738;42.668;23.250;2023-02-21T06:56:56;48330.75;;;-141.90;28.60
5298;BME280;14738;42.668;23.250;2023-02-21T06:59:23;48374.41;;;-141.90;29.09
5298;BME280;14738;42.668;23.250;2023-02-21T07:01:48;48410.16;;;-141.90;29.26
5298;BME280;14738;42.668;23.250;2023-02-21T07:04:14;48380.38;;;-141.90;28.26
5298;BME280;14738;42.668;23.250;2023-02-21T07:06:39;48390.31;;;-141.90;28.30
5298;BME280;14738;42.668;23.250;2023-02-21T07:09:05;48370.44;;;-141.90;27.73
5298;BME280;14738;42.668;23.250;2023-02-21T07:11:32;48394.28;;;-141.90;28.16
5298;BME280;14738;42.668;23.250;2023-02-21T07:13:58;48354.56;;;-141.90;28.23
5298;BME280;14738;42.668;23.250;2023-02-21T07:16:24;48346.63;;;-141.90;28.58
5298;BME280;14738;42.668;23.250;2023-02-21T07:18:50;48352.59;;;-141.90;28.73
5298;BME280;14738;42.668;23.250;2023-02-21T07:21:16;48384.34;;;-141.90;29.41
5298;BME280;14738;42.668;23.250;2023-02-21T07:23:43;48386.34;;;-141.90;29.35
5298;BME280;14738;42.668;23.250;2023-02-21T07:26:10;48342.66;;;-141.90;29.06
5298;BME280;14738;42.668;23.250;2023-02-21T07:28:35;48380.38;;;-141.90;29.74
5298;BME280;14738;42.668;23.250;2023-02-21T07:31:01;48376.41;;;-141.90;29.51
5298;BME280;14738;42.668;23.250;2023-02-21T07:33:26;48366.47;;;-141.90;30.00
5298;BME280;14738;42.668;23.250;2023-02-21T07:35:51;48378.38;;;-141.90;30.19
5298;BME280;14738;42.668;23.250;2023-02-21T07:38:22;48380.38;;;-141.90;29.79
5298;BME280;14738;42.668;23.250;2023-02-21T07:40:48;48368.47;;;-141.90;29.71
5298;BME280;14738;42.668;23.250;2023-02-21T07:43:13;48394.28;;;-141.90;29.17
5298;BME280;14738;42.668;23.250;2023-02-21T07:45:39;48364.50;;;-141.90;29.37
5298;BME280;14738;42.668;23.250;2023-02-21T07:48:04;48358.53;;;-141.90;29.45
5298;BME280;14738;42.668;23.250;2023-02-21T07:50:30;48364.50;;;-141.90;29.18
5298;BME280;14738;42.668;23.250;2023-02-21T07:52:56;48360.53;;;-141.90;29.38
5298;BME280;14738;42.668;23.250;2023-02-21T07:55:21;48364.50;;;-141.90;29.76
5298;BME280;14738;42.668;23.250;2023-02-21T07:57:47;48378.38;;;-141.90;29.32
5298;BME280;14738;42.668;23.250;2023-02-21T08:00:13;48366.47;;;-141.90;29.83
5298;BME280;14738;42.668;23.250;2023-02-21T08:02:39;48370.44;;;-141.90;30.26
5298;BME280;14738;42.668;23.250;2023-02-21T08:05:06;48362.50;;;-141.90;30.42
5298;BME280;14738;42.668;23.250;2023-02-21T08:07:31;48386.34;;;-141.90;30.09
5298;BME280;14738;42.668;23.250;2023-02-21T08:09:57;48370.44;;;-141.90;30.10
5298;BME280;14738;42.668;23.250;2023-02-21T08:12:22;48354.56;;;-141.90;30.54
5298;BME280;14738;42.668;23.250;2023-02-21T08:14:48;48394.28;;;-141.90;30.42
5298;BME280;14738;42.668;23.250;2023-02-21T08:17:13;48360.53;;;-141.90;30.04
5298;BME280;14738;42.668;23.250;2023-02-21T08:19:39;48384.34;;;-141.90;30.14
5298;BME280;14738;42.668;23.250;2023-02-21T08:22:04;48358.53;;;-141.90;30.41
5298;BME280;14738;42.668;23.250;2023-02-21T08:24:30;48362.50;;;-141.90;30.10
5298;BME280;14738;42.668;23.250;2023-02-21T08:26:55;48346.63;;;-141.90;29.45
5298;BME280;14738;42.668;23.250;2023-02-21T08:29:21;48356.56;;;-141.90;30.20
5298;BME280;14738;42.668;23.250;2023-02-21T08:31:47;48354.56;;;-141.90;29.89
5298;BME280;14738;42.668;23.250;2023-02-21T08:34:13;48368.47;;;-141.90;29.93
5298;BME280;14738;42.668;23.250;2023-02-21T08:36:40;48402.22;;;-141.90;29.61
5298;BME280;14738;42.668;23.250;2023-02-21T08:39:07;48354.56;;;-141.90;28.65
5298;BME280;14738;42.668;23.250;2023-02-21T08:41:38;48263.25;;;-141.90;28.23
5298;BME280;14738;42.668;23.250;2023-02-21T08:44:05;48358.53;;;-141.90;28.51
5298;BME280;14738;42.668;23.250;2023-02-21T08:46:31;48368.47;;;-141.90;28.44
5298;BME280;14738;42.668;23.250;2023-02-21T08:48:56;48370.44;;;-141.90;27.06
5298;BME280;14738;42.668;23.250;2023-02-21T08:51:26;48354.56;;;-141.90;27.07
5298;BME280;14738;42.668;23.250;2023-02-21T08:53:51;48370.44;;;-141.90;26.76
5298;BME280;14738;42.668;23.250;2023-02-21T08:56:19;48388.31;;;-141.90;27.49
5298;BME280;14738;42.668;23.250;2023-02-21T08:58:44;48342.66;;;-141.90;29.24
5298;BME280;14738;42.668;23.250;2023-02-21T09:01:10;48354.56;;;-141.90;30.62
5298;BME280;14738;42.668;23.250;2023-02-21T09:03:36;48354.56;;;-141.90;31.00
5298;BME280;14738;42.668;23.250;2023-02-21T09:06:02;48350.59;;;-141.90;31.70
5298;BME280;14738;42.668;23.250;2023-02-21T09:08:28;48370.44;;;-141.90;31.52
5298;BME280;14738;42.668;23.250;2023-02-21T09:10:57;48364.50;;;-141.90;31.65
5298;BME280;14738;42.668;23.250;2023-02-21T09:13:27;48374.41;;;-141.90;31.47
5298;BME280;14738;42.668;23.250;2023-02-21T09:15:53;48364.50;;;-141.90;31.02
5298;BME280;14738;42.668;23.250;2023-02-21T09:18:19;48386.34;;;-141.90;31.06
5298;BME280;14738;42.668;23.250;2023-02-21T09:20:44;48370.44;;;-141.90;31.03
5298;BME280;14738;42.668;23.250;2023-02-21T09:23:17;48390.31;;;-141.90;30.98
5298;BME280;14738;42.668;23.250;2023-02-21T09:25:49;48370.44;;;-141.90;30.55
5298;BME280;14738;42.668;23.250;2023-02-21T09:28:15;48380.38;;;-141.90;29.81
5298;BME280;14738;42.668;23.250;2023-02-21T09:30:41;48366.47;;;-141.90;29.91
5298;BME280;14738;42.668;23.250;2023-02-21T09:33:07;48394.28;;;-141.90;29.56
5298;BME280;14738;42.668;23.250;2023-02-21T09:35:32;48386.34;;;-141.90;29.85
5298;BME280;14738;42.668;23.250;2023-02-21T09:37:59;48346.63;;;-141.90;29.39
5298;BME280;14738;42.668;23.250;2023-02-21T09:40:36;48378.38;;;-141.90;29.46
5298;BME280;14738;42.668;23.250;2023-02-21T09:43:07;48364.50;;;-141.90;28.93
5298;BME280;14738;42.668;23.250;2023-02-21T09:45:36;48330.75;;;-141.90;26.64
5298;BME280;14738;42.668;23.250;2023-02-21T09:48:27;48374.41;;;-141.90;25.36
5298;BME280;14738;42.668;23.250;2023-02-21T09:51:05;48394.28;;;-141.90;25.06
5298;BME280;14738;42.668;23.250;2023-02-21T09:53:40;48392.28;;;-141.90;24.05
5298;BME280;14738;42.668;23.250;2023-02-21T09:58:42;48410.16;;;-141.90;23.12
5298;BME280;14738;42.668;23.250;2023-02-21T10:09:22;48362.50;;;-141.90;22.20
5298;BME280;14738;42.668;23.250;2023-02-21T10:12:23;48422.06;;;-141.90;22.06
5298;BME280;14738;42.668;23.250;2023-02-21T10:17:59;48430.00;;;-141.90;21.59
5298;BME280;14738;42.668;23.250;2023-02-21T10:20:36;48382.34;;;-141.90;20.71
5298;BME280;14738;42.668;23.250;2023-02-21T10:23:12;48432.00;;;-141.90;21.07
5298;BME280;14738;42.668;23.250;2023-02-21T10:25:42;48352.59;;;-141.90;20.45
5298;BME280;14738;42.668;23.250;2023-02-21T10:28:16;48439.94;;;-141.90;21.10
5298;BME280;14738;42.668;23.250;2023-02-21T10:30:42;48447.88;;;-141.90;20.95
5298;BME280;14738;42.668;23.250;2023-02-21T10:33:07;48428.03;;;-141.90;21.07
5298;BME280;14738;42.668;23.250;2023-02-21T10:35:34;48453.81;;;-141.90;21.20
5298;BME280;14738;42.668;23.250;2023-02-21T10:38:02;48410.16;;;-141.90;21.22
5298;BME280;14738;42.668;23.250;2023-02-21T10:45:46;48428.03;;;-141.90;21.19
5298;BME280;14738;42.668;23.250;2023-02-21T10:48:15;48414.13;;;-141.90;19.89
5298;BME280;14738;42.668;23.250;2023-02-21T10:53:25;48414.13;;;-141.90;19.65
5298;BME280;14738;42.668;23.250;2023-02-21T10:58:54;48422.06;;;-141.90;19.67
5298;BME280;14738;42.668;23.250;2023-02-21T11:06:50;48457.81;;;-141.90;19.86
5298;BME280;14738;42.668;23.250;2023-02-21T11:14:32;48424.06;;;-141.90;19.98
5298;BME280;14738;42.668;23.250;2023-02-21T11:17:05;48441.91;;;-141.90;20.26
5298;BME280;14738;42.668;23.250;2023-02-21T11:22:07;48418.09;;;-141.90;19.69
5298;BME280;14738;42.668;23.250;2023-02-21T11:24:43;48416.09;;;-141.90;19.70
5298;BME280;14738;42.668;23.250;2023-02-21T11:27:09;48422.06;;;-141.90;19.60
5298;BME280;14738;42.668;23.250;2023-02-21T11:29:41;48384.34;;;-141.90;19.50
5298;BME280;14738;42.668;23.250;2023-02-21T11:32:12;48398.25;;;-141.90;19.59
5298;BME280;14738;42.668;23.250;2023-02-21T11:34:44;48420.09;;;-141.90;19.57
5298;BME280;14738;42.668;23.250;2023-02-21T11:37:13;48433.97;;;-141.90;19.39
5298;BME280;14738;42.668;23.250;2023-02-21T11:39:39;48398.25;;;-141.90;19.37
5298;BME280;14738;42.668;23.250;2023-02-21T11:42:29;48408.16;;;-141.90;19.82
5298;BME280;14738;42.668;23.250;2023-02-21T11:45:27;48420.09;;;-141.90;19.88
5298;BME280;14738;42.668;23.250;2023-02-21T11:47:59;48449.84;;;-141.90;19.78
5298;BME280;14738;42.668;23.250;2023-02-21T11:50:29;48414.13;;;-141.90;20.05
5298;BME280;14738;42.668;23.250;2023-02-21T11:53:12;48432.00;;;-141.90;20.06
5298;BME280;14738;42.668;23.250;2023-02-21T11:55:41;48449.84;;;-141.90;20.00
5298;BME280;14738;42.668;23.250;2023-02-21T11:58:38;48433.97;;;-141.90;19.75
5298;BME280;14738;42.668;23.250;2023-02-21T12:01:12;48435.97;;;-141.90;20.22
5298;BME280;14738;42.668;23.250;2023-02-21T12:08:57;48433.97;;;-141.90;20.51
5298;BME280;14738;42.668;23.250;2023-02-21T12:14:23;48443.91;;;-141.90;20.42
5298;BME280;14738;42.668;23.250;2023-02-21T12:28:07;48432.00;;;-141.90;21.50
5298;BME280;14738;42.668;23.250;2023-02-21T12:44:20;48402.22;;;-141.90;22.24
5298;BME280;14738;42.668;23.250;2023-02-21T12:47:03;48370.44;;;-141.90;22.07
5298;BME280;14738;42.668;23.250;2023-02-21T12:52:23;48414.13;;;-141.90;22.58
5298;BME280;14738;42.668;23.250;2023-02-21T12:55:21;48406.19;;;-141.90;22.12
5298;BME280;14738;42.668;23.250;2023-02-21T13:00:19;48420.09;;;-141.90;22.40
5298;BME280;14738;42.668;23.250;2023-02-21T13:05:46;48418.09;;;-141.90;22.08
5298;BME280;14738;42.668;23.250;2023-02-21T13:09:29;48422.06;;;-141.90;21.85
5298;BME280;14738;42.668;23.250;2023-02-21T13:13:57;48394.28;;;-141.90;22.35
5298;BME280;14738;42.668;23.250;2023-02-21T13:16:24;48414.13;;;-141.90;21.91
5298;BME280;14738;42.668;23.250;2023-02-21T13:18:51;48390.31;;;-141.90;22.37
5298;BME280;14738;42.668;23.250;2023-02-21T13:29:45;48418.09;;;-141.90;21.22
5298;BME280;14738;42.668;23.250;2023-02-21T13:32:14;48422.06;;;-141.90;21.39
5298;BME280;14738;42.668;23.250;2023-02-21T13:35:01;48420.09;;;-141.90;20.84
5298;BME280;14738;42.668;23.250;2023-02-21T13:37:33;48420.09;;;-141.90;20.86
5298;BME280;14738;42.668;23.250;2023-02-21T13:40:23;48402.22;;;-141.90;20.61
5298;BME280;14738;42.668;23.250;2023-02-21T13:43:15;48402.22;;;-141.90;20.93
5298;BME280;14738;42.668;23.250;2023-02-21T13:45:42;48433.97;;;-141.90;20.41
5298;BME280;14738;42.668;23.250;2023-02-21T13:48:17;48426.03;;;-141.90;20.88
5298;BME280;14738;42.668;23.250;2023-02-21T13:50:48;48408.16;;;-141.90;20.61
5298;BME280;14738;42.668;23.250;2023-02-21T13:53:18;48406.19;;;-141.90;19.89
5298;BME280;14738;42.668;23.250;2023-02-21T13:58:32;48398.25;;;-141.90;19.98
5298;BME280;14738;42.668;23.250;2023-02-21T14:03:46;48426.03;;;-141.90;20.11
5298;BME280;14738;42.668;23.250;2023-02-21T14:08:49;48406.19;;;-141.90;20.49
5298;BME280;14738;42.668;23.250;2023-02-21T14:11:22;48424.06;;;-141.90;20.97
5298;BME280;14738;42.668;23.250;2023-02-21T14:13:51;48384.34;;;-141.90;21.10
5298;BME280;14738;42.668;23.250;2023-02-21T14:19:09;48416.09;;;-141.90;20.14
5298;BME280;14738;42.668;23.250;2023-02-21T14:21:39;48356.56;;;-141.90;18.94
5298;BME280;14738;42.668;23.250;2023-02-21T14:24:11;48394.28;;;-141.90;19.74
5298;BME280;14738;42.668;23.250;2023-02-21T14:37:16;48390.31;;;-141.90;20.26
5298;BME280;14738;42.668;23.250;2023-02-21T14:50:37;48394.28;;;-141.90;19.99
5298;BME280;14738;42.668;23.250;2023-02-21T14:58:58;48408.16;;;-141.90;18.98
5298;BME280;14738;42.668;23.250;2023-02-21T15:01:45;48370.44;;;-141.90;19.35
5298;BME280;14738;42.668;23.250;2023-02-21T15:06:41;48374.41;;;-141.90;18.70
5298;BME280;14738;42.668;23.250;2023-02-21T15:09:26;48400.22;;;-141.90;18.81
5298;BME280;14738;42.668;23.250;2023-02-21T15:11:51;48394.28;;;-141.90;18.86
5298;BME280;14738;42.668;23.250;2023-02-21T15:14:27;48366.47;;;-141.90;18.91
5298;BME280;14738;42.668;23.250;2023-02-21T15:16:54;48398.25;;;-141.90;19.06
5298;BME280;14738;42.668;23.250;2023-02-21T15:19:34;48366.47;;;-141.90;19.08
5298;BME280;14738;42.668;23.250;2023-02-21T15:22:15;48350.59;;;-141.90;18.88
5298;BME280;14738;42.668;23.250;2023-02-21T15:27:21;48394.28;;;-141.90;19.33
5298;BME280;14738;42.668;23.250;2023-02-21T15:30:21;48408.16;;;-141.90;19.11
5298;BME280;14738;42.668;23.250;2023-02-21T15:33:06;48362.50;;;-141.90;19.06
5298;BME280;14738;42.668;23.250;2023-02-21T15:35:35;48358.53;;;-141.90;19.28
5298;BME280;14738;42.668;23.250;2023-02-21T15:38:05;48354.56;;;-141.90;19.72
5298;BME280;14738;42.668;23.250;2023-02-21T15:40:34;48370.44;;;-141.90;19.54
5298;BME280;14738;42.668;23.250;2023-02-21T15:43:01;48390.31;;;-141.90;19.65
5298;BME280;14738;42.668;23.250;2023-02-21T15:45:43;48346.63;;;-141.90;20.32
5298;BME280;14738;42.668;23.250;2023-02-21T15:48:09;48366.47;;;-141.90;20.44
5298;BME280;14738;42.668;23.250;2023-02-21T15:50:41;48354.56;;;-141.90;20.61
5298;BME280;14738;42.668;23.250;2023-02-21T15:53:22;48406.19;;;-141.90;20.53
5298;BME280;14738;42.668;23.250;2023-02-21T15:55:50;48384.34;;;-141.90;20.48
5298;BME280;14738;42.668;23.250;2023-02-21T15:58:25;48354.56;;;-141.90;21.06